Time;durP1;ratioP1;P1;durP2;ratioP2;P2;SDS_P1;SDS_P2;PMS_P1;PMS_P2;Temp;Humidity;BMP_temperature;BMP_pressure;BME280_temperature;BME280_humidity;BME280_pressure;Samples;Min_cycle;Max_cycle;Signal;HPM_P1;HPM_P2
2022/01/28 00:01:01;;;;;;;16.55;9.77;;;4.10;80.00;;;;;;4977699;28;20038;-65
2022/01/28 00:03:26;;;;;;;15.80;9.18;;;4.10;80.20;;;;;;4976368;28;20567;-65
2022/01/28 00:05:52;;;;;;;15.10;8.98;;;4.10;80.10;;;;;;4979594;28;20038;-64
2022/01/28 00:08:17;;;;;;;15.00;8.60;;;4.10;80.10;;;;;;4979377;28;20042;-65
2022/01/28 00:10:43;;;;;;;16.42;8.85;;;4.20;80.20;;;;;;4977746;28;20420;-65
2022/01/28 00:39:35;;;;;;;19.25;10.05;;;4.30;80.00;;;;;;4977743;28;20030;-65
2022/01/28 00:42:00;;;;;;;17.75;9.40;;;4.30;80.10;;;;;;4979087;28;20146;-66
2022/01/28 00:44:26;;;;;;;17.02;9.73;;;4.30;80.00;;;;;;4977304;28;20077;-66
2022/01/28 00:46:52;;;;;;;16.80;9.25;;;4.30;80.00;;;;;;4979266;28;20041;-65
2022/01/28 00:49:18;;;;;;;16.08;9.43;;;4.30;80.00;;;;;;4974387;28;20034;-65
2022/01/28 00:51:44;;;;;;;18.65;9.60;;;4.30;80.10;;;;;;4976582;28;20069;-65
2022/01/28 00:54:09;;;;;;;16.02;8.75;;;4.30;80.10;;;;;;4977339;28;20034;-65
2022/01/28 00:56:35;;;;;;;15.68;9.13;;;4.30;80.00;;;;;;4973963;28;20106;-65
2022/01/28 00:59:01;;;;;;;18.27;8.48;;;4.30;80.10;;;;;;4975997;28;20039;-66
2022/01/28 01:01:29;;;;;;;15.55;8.95;;;4.30;80.00;;;;;;4974254;28;20032;-66
2022/01/28 01:04:00;;;;;;;15.73;9.07;;;4.30;79.90;;;;;;4978007;28;20034;-67
2022/01/28 01:06:26;;;;;;;16.17;9.20;;;4.30;79.90;;;;;;4975816;28;20031;-65
2022/01/28 01:08:52;;;;;;;15.88;9.20;;;4.40;79.90;;;;;;4978191;28;20031;-65
2022/01/28 01:11:21;;;;;;;16.52;9.55;;;4.30;79.80;;;;;;4975759;28;20034;-65
2022/01/28 01:13:48;;;;;;;14.60;9.15;;;4.40;79.90;;;;;;4976829;28;20059;-65
2022/01/28 01:16:18;;;;;;;16.70;8.77;;;4.30;79.90;;;;;;4977123;28;20030;-64
2022/01/28 01:18:54;;;;;;;14.98;9.10;;;4.30;79.90;;;;;;4977591;28;20042;-65
2022/01/28 01:21:24;;;;;;;16.27;8.60;;;4.30;79.90;;;;;;4975192;28;20420;-65
2022/01/28 01:23:55;;;;;;;15.30;8.63;;;4.30;80.00;;;;;;4976687;28;20038;-66
2022/01/28 01:26:30;;;;;;;12.98;7.90;;;4.30;80.00;;;;;;4979154;28;20030;-65
2022/01/28 01:28:56;;;;;;;14.38;8.20;;;4.30;80.00;;;;;;4978716;28;20097;-66
2022/01/28 01:31:22;;;;;;;12.18;7.63;;;4.30;80.00;;;;;;4973704;28;20042;-66
2022/01/28 01:33:55;;;;;;;14.05;7.68;;;4.30;80.90;;;;;;4976883;28;20085;-66
2022/01/28 01:36:21;;;;;;;13.90;7.90;;;4.30;80.00;;;;;;4977483;28;20110;-65
2022/01/28 01:38:47;;;;;;;12.50;7.47;;;4.30;80.10;;;;;;4976758;28;20453;-65
2022/01/28 01:41:20;;;;;;;13.40;7.80;;;4.40;80.10;;;;;;4973841;28;20215;-65
2022/01/28 01:54:18;;;;;;;11.90;6.90;;;4.40;80.00;;;;;;4975871;28;20069;-66
2022/01/28 01:56:45;;;;;;;11.02;6.70;;;4.40;79.90;;;;;;4976292;28;20062;-65
2022/01/28 01:59:10;;;;;;;10.35;6.60;;;4.40;79.90;;;;;;4975304;28;20034;-65
2022/01/28 02:01:38;;;;;;;9.50;5.93;;;4.40;79.90;;;;;;4979395;28;20538;-65
2022/01/28 02:04:04;;;;;;;10.85;6.28;;;4.40;79.90;;;;;;4975496;28;20117;-66
2022/01/28 02:06:30;;;;;;;11.35;6.22;;;4.40;79.80;;;;;;4976518;28;22707;-66
2022/01/28 02:08:56;;;;;;;11.73;6.55;;;4.40;79.70;;;;;;4976631;28;20026;-66
2022/01/28 02:11:22;;;;;;;10.85;6.20;;;4.50;79.80;;;;;;4975488;28;20046;-65
2022/01/28 02:13:49;;;;;;;8.98;6.05;;;4.40;80.60;;;;;;4975304;28;20565;-66
2022/01/28 02:16:16;;;;;;;9.77;6.30;;;4.50;79.70;;;;;;4975553;28;20085;-65
2022/01/28 02:18:42;;;;;;;9.60;5.93;;;4.40;79.70;;;;;;4974671;28;20256;-65
2022/01/28 02:21:10;;;;;;;10.50;6.25;;;4.40;79.60;;;;;;4978856;28;20038;-66
2022/01/28 02:23:37;;;;;;;13.32;6.60;;;4.40;79.50;;;;;;4975932;28;20125;-66
2022/01/28 02:26:05;;;;;;;9.90;6.03;;;4.40;79.60;;;;;;4975861;28;20128;-66
2022/01/28 02:28:35;;;;;;;10.80;6.25;;;4.40;79.50;;;;;;4975191;28;20049;-65
2022/01/28 02:31:02;;;;;;;11.32;6.03;;;4.40;79.60;;;;;;4975449;28;20045;-67
2022/01/28 02:33:29;;;;;;;9.75;6.00;;;4.40;79.60;;;;;;4975349;28;20037;-66
2022/01/28 02:35:55;;;;;;;10.48;5.93;;;4.40;79.60;;;;;;4975427;28;20038;-65
2022/01/28 02:38:22;;;;;;;8.60;5.30;;;4.40;79.70;;;;;;4976093;28;20723;-66
2022/01/28 02:40:55;;;;;;;9.25;5.75;;;4.40;79.70;;;;;;4976216;28;20777;-65
2022/01/28 02:45:47;;;;;;;8.75;5.57;;;4.40;79.70;;;;;;4975507;28;20034;-66
2022/01/28 02:48:19;;;;;;;10.25;5.63;;;4.40;79.70;;;;;;4974339;28;20471;-66
2022/01/28 02:51:00;;;;;;;8.60;5.13;;;4.40;79.70;;;;;;4975538;28;20038;-65
2022/01/28 02:53:39;;;;;;;9.93;5.43;;;4.50;79.70;;;;;;4973559;28;20035;-65
2022/01/28 02:56:14;;;;;;;8.07;5.47;;;4.50;79.70;;;;;;4974411;28;20039;-65
2022/01/28 02:58:40;;;;;;;;;;;4.50;79.70;;;;;;4974647;28;22854;-66
2022/01/28 03:01:06;;;;;;;6.43;4.45;;;4.50;80.00;;;;;;4975146;28;19922;-65
2022/01/28 03:03:32;;;;;;;8.30;5.22;;;4.50;79.50;;;;;;4973795;28;20038;-66
2022/01/28 03:05:57;;;;;;;7.30;4.85;;;4.50;79.50;;;;;;4978169;28;20042;-65
2022/01/28 03:08:27;;;;;;;7.07;4.68;;;4.50;79.70;;;;;;4973960;28;22381;-66
2022/01/28 03:16:22;;;;;;;6.57;4.78;;;4.50;79.60;;;;;;4972648;28;20037;-66
2022/01/28 03:21:40;;;;;;;6.97;4.72;;;4.50;79.50;;;;;;4975389;28;20035;-67
2022/01/28 03:24:04;;;;;;;6.10;4.72;;;4.60;80.40;;;;;;4973969;28;20043;-67
2022/01/28 03:26:30;;;;;;;6.18;4.40;;;4.60;79.50;;;;;;4974308;28;20038;-65
2022/01/28 03:28:55;;;;;;;5.65;4.25;;;4.60;79.50;;;;;;4975249;28;20045;-69
2022/01/28 03:31:21;;;;;;;6.78;4.43;;;4.60;79.30;;;;;;4973844;28;20049;-65
2022/01/28 03:33:47;;;;;;;6.53;4.47;;;4.60;79.30;;;;;;4975792;28;20521;-66
2022/01/28 03:36:13;;;;;;;5.72;4.20;;;4.60;79.30;;;;;;4975616;28;20166;-67
2022/01/28 03:38:41;;;;;;;6.85;4.47;;;4.60;79.20;;;;;;4973876;28;20034;-65
2022/01/28 03:41:16;;;;;;;8.07;4.50;;;4.60;79.20;;;;;;4976291;28;20038;-66
2022/01/28 03:43:45;;;;;;;5.97;4.22;;;4.60;79.20;;;;;;4973175;28;20046;-65
2022/01/28 03:46:11;;;;;;;9.88;4.82;;;4.70;79.20;;;;;;4973210;28;20394;-66
2022/01/28 03:48:37;;;;;;;6.63;4.60;;;4.70;79.20;;;;;;4973537;28;20165;-67
2022/01/28 03:51:03;;;;;;;6.20;4.40;;;4.70;79.20;;;;;;4973775;28;20042;-65
2022/01/28 03:53:29;;;;;;;6.72;4.70;;;4.70;79.10;;;;;;4975135;28;20516;-67
2022/01/28 03:55:57;;;;;;;7.40;4.22;;;4.70;79.10;;;;;;4975232;28;20046;-66
2022/01/28 03:58:22;;;;;;;5.70;4.32;;;4.70;79.00;;;;;;4976490;28;20077;-66
2022/01/28 04:00:48;;;;;;;5.82;4.25;;;4.70;79.00;;;;;;4973277;28;20046;-66
2022/01/28 04:11:28;;;;;;;6.50;4.15;;;4.60;79.00;;;;;;4974499;28;20127;-66
2022/01/28 04:14:06;;;;;;;5.35;3.97;;;4.60;79.00;;;;;;4974924;28;20031;-65
2022/01/28 04:19:16;;;;;;;6.53;4.15;;;4.60;79.00;;;;;;4973199;28;20032;-66
2022/01/28 04:21:41;;;;;;;5.53;4.00;;;4.60;79.00;;;;;;4973343;28;20039;-67
2022/01/28 04:24:07;;;;;;;6.57;4.75;;;4.60;79.00;;;;;;4980721;28;20544;-66
2022/01/28 04:26:32;;;;;;;4.38;3.55;;;4.60;79.00;;;;;;4974584;28;20486;-65
2022/01/28 04:28:58;;;;;;;6.05;4.22;;;4.60;79.00;;;;;;4977925;28;20489;-66
2022/01/28 04:31:24;;;;;;;6.20;4.65;;;4.60;79.00;;;;;;4975991;28;20448;-66
2022/01/28 04:33:52;;;;;;;6.70;4.43;;;4.70;79.00;;;;;;4979296;28;20055;-64
2022/01/28 04:36:19;;;;;;;7.18;4.65;;;4.70;79.00;;;;;;4977955;28;20030;-66
2022/01/28 04:38:53;;;;;;;7.53;4.45;;;4.70;79.00;;;;;;4978212;28;20074;-66
2022/01/28 04:42:29;;;;;;;5.75;4.25;;;4.70;79.00;;;;;;4976754;28;20106;-65
2022/01/28 04:44:20;;;;;;;6.13;4.05;;;4.70;79.00;;;;;;4975964;28;20034;-67
2022/01/28 04:46:59;;;;;;;4.45;3.47;;;4.70;78.90;;;;;;4978281;28;20026;-66
2022/01/28 04:49:42;;;;;;;8.73;4.25;;;4.70;78.90;;;;;;4975548;28;20042;-65
2022/01/28 04:52:42;;;;;;;7.50;4.70;;;4.70;78.80;;;;;;4977536;28;20030;-64
2022/01/28 05:24:36;;;;;;;5.70;3.93;;;4.80;77.90;;;;;;4978562;28;20044;-66
2022/01/28 05:26:59;;;;;;;7.45;4.15;;;4.80;77.70;;;;;;4977769;28;20317;-65
2022/01/28 05:29:25;;;;;;;5.07;3.53;;;4.80;77.60;;;;;;4976026;28;20030;-65
2022/01/28 05:31:51;;;;;;;5.00;3.58;;;4.80;77.40;;;;;;4975643;28;20085;-65
2022/01/28 05:34:17;;;;;;;5.60;3.65;;;4.80;77.10;;;;;;4977282;28;20038;-65
2022/01/28 05:36:43;;;;;;;7.07;3.55;;;4.80;77.00;;;;;;4978486;28;20037;-65
2022/01/28 05:39:09;;;;;;;4.38;3.50;;;4.80;77.00;;;;;;4978830;28;20275;-65
2022/01/28 05:41:34;;;;;;;6.22;3.83;;;4.80;77.10;;;;;;4978574;28;20038;-66
2022/01/28 05:44:02;;;;;;;5.13;3.35;;;4.80;76.90;;;;;;4977061;28;20070;-67
2022/01/28 05:46:29;;;;;;;6.68;4.20;;;4.80;77.00;;;;;;4977761;28;20490;-66
2022/01/28 05:48:56;;;;;;;6.40;3.28;;;4.80;76.70;;;;;;4977916;28;20039;-65
2022/01/28 05:51:22;;;;;;;4.63;3.50;;;4.80;76.70;;;;;;4976551;28;20045;-66
2022/01/28 05:53:47;;;;;;;6.85;3.90;;;4.80;76.80;;;;;;4979635;28;20030;-65
2022/01/28 05:56:13;;;;;;;6.68;3.60;;;4.80;76.80;;;;;;4980621;28;20037;-65
2022/01/28 05:58:39;;;;;;;4.07;3.30;;;4.80;76.70;;;;;;4977669;28;20041;-66
2022/01/28 06:01:04;;;;;;;4.28;3.08;;;4.80;76.60;;;;;;4978655;28;20034;-65
2022/01/28 06:03:30;;;;;;;5.22;3.05;;;4.80;76.60;;;;;;4976543;28;20078;-66
2022/01/28 06:05:56;;;;;;;3.30;2.97;;;4.80;76.40;;;;;;4977123;28;20568;-65
2022/01/28 06:08:22;;;;;;;3.90;3.13;;;4.90;76.60;;;;;;4977289;28;20493;-65
2022/01/28 06:10:47;;;;;;;4.05;3.00;;;4.80;76.70;;;;;;4977828;28;20038;-66
2022/01/28 06:13:13;;;;;;;4.43;3.15;;;4.90;76.60;;;;;;4975160;28;20464;-65
2022/01/28 06:15:41;;;;;;;4.63;3.15;;;4.80;76.40;;;;;;4977232;28;20113;-65
2022/01/28 06:18:07;;;;;;;5.03;3.42;;;4.90;76.20;;;;;;4976947;28;20037;-67
2022/01/28 06:20:32;;;;;;;5.10;3.58;;;4.90;76.20;;;;;;4975630;28;20049;-65
2022/01/28 06:22:58;;;;;;;5.47;2.83;;;4.90;76.30;;;;;;4977469;28;20757;-65
2022/01/28 06:25:23;;;;;;;3.92;3.10;;;4.90;76.00;;;;;;4977662;28;20039;-66
2022/01/28 06:27:49;;;;;;;5.40;3.00;;;4.90;75.90;;;;;;4977177;28;20041;-65
2022/01/28 06:30:16;;;;;;;5.45;3.30;;;4.90;75.80;;;;;;4977392;28;20061;-66
2022/01/28 06:32:43;;;;;;;5.07;3.10;;;4.90;75.50;;;;;;4975867;28;20074;-66
2022/01/28 06:35:09;;;;;;;4.95;3.30;;;4.90;75.40;;;;;;4978912;28;20038;-66
2022/01/28 06:37:37;;;;;;;4.55;3.08;;;5.00;75.50;;;;;;4975839;28;20039;-65
2022/01/28 06:40:04;;;;;;;3.88;3.00;;;4.90;75.50;;;;;;4976847;28;20038;-65
2022/01/28 06:42:30;;;;;;;5.18;3.10;;;4.90;75.30;;;;;;4978251;28;20485;-66
2022/01/28 06:44:56;;;;;;;4.30;3.13;;;4.90;75.40;;;;;;4977264;28;20045;-63
2022/01/28 06:47:21;;;;;;;6.93;3.42;;;4.90;75.40;;;;;;4977697;28;20401;-66
2022/01/28 06:49:47;;;;;;;7.00;3.58;;;4.90;75.30;;;;;;4976061;28;20030;-67
2022/01/28 06:52:12;;;;;;;4.80;3.67;;;4.90;75.30;;;;;;4975127;28;20023;-66
2022/01/28 06:54:38;;;;;;;5.53;3.70;;;5.00;75.50;;;;;;4974514;28;20446;-65
2022/01/28 06:57:04;;;;;;;5.38;3.70;;;4.90;75.30;;;;;;4977482;28;20405;-67
2022/01/28 06:59:30;;;;;;;5.40;3.90;;;4.90;75.50;;;;;;4974161;28;20086;-66
2022/01/28 07:01:55;;;;;;;6.68;4.00;;;4.90;75.50;;;;;;4976010;28;20031;-65
2022/01/28 07:04:21;;;;;;;5.57;3.78;;;4.90;75.70;;;;;;4977975;28;20723;-65
2022/01/28 07:06:46;;;;;;;5.80;3.97;;;4.90;75.80;;;;;;4974328;28;20040;-66
2022/01/28 07:09:12;;;;;;;5.70;4.03;;;4.90;75.90;;;;;;4977531;28;20035;-66
2022/01/28 07:11:38;;;;;;;5.22;4.03;;;4.90;76.00;;;;;;4975390;28;20030;-66
2022/01/28 07:14:04;;;;;;;6.43;4.50;;;4.80;76.00;;;;;;4975739;28;20070;-66
2022/01/28 07:16:30;;;;;;;6.68;4.70;;;4.80;76.20;;;;;;4973118;28;20034;-66
2022/01/28 07:18:56;;;;;;;5.78;3.95;;;4.80;76.40;;;;;;4974986;28;20031;-65
2022/01/28 07:21:21;;;;;;;6.70;4.40;;;4.80;76.60;;;;;;4975437;28;20026;-65
2022/01/28 07:23:47;;;;;;;5.68;4.53;;;4.70;76.60;;;;;;4974520;28;20027;-66
2022/01/28 07:26:13;;;;;;;6.47;4.03;;;4.70;76.90;;;;;;4975251;28;20409;-66
2022/01/28 07:28:41;;;;;;;5.75;4.03;;;4.60;77.00;;;;;;4974999;28;20074;-67
2022/01/28 07:31:08;;;;;;;6.40;4.28;;;4.60;77.10;;;;;;4977017;28;20041;-65
2022/01/28 07:33:34;;;;;;;6.35;4.20;;;4.60;77.10;;;;;;4977320;28;20038;-66
2022/01/28 07:36:00;;;;;;;7.47;4.00;;;4.50;76.90;;;;;;4977105;28;20031;-66
2022/01/28 07:38:26;;;;;;;6.30;4.13;;;4.50;77.00;;;;;;4975447;28;20040;-66
2022/01/28 07:40:51;;;;;;;7.03;3.95;;;4.50;77.10;;;;;;4977910;28;20038;-65
2022/01/28 07:43:17;;;;;;;7.03;4.30;;;4.40;76.90;;;;;;4975282;28;20047;-66
2022/01/28 07:45:43;;;;;;;6.80;3.72;;;4.40;77.00;;;;;;4977626;28;20032;-65
2022/01/28 07:48:09;;;;;;;5.57;4.03;;;4.40;77.00;;;;;;4975651;28;20394;-65
2022/01/28 07:50:34;;;;;;;5.93;4.15;;;4.40;77.00;;;;;;4975216;28;20029;-66
2022/01/28 07:53:00;;;;;;;6.68;4.30;;;4.40;77.10;;;;;;4975938;28;20434;-65
2022/01/28 07:55:26;;;;;;;5.97;4.45;;;4.30;77.00;;;;;;4973897;28;20090;-65
2022/01/28 07:57:51;;;;;;;7.50;4.65;;;4.30;77.10;;;;;;4978363;28;20122;-65
2022/01/28 08:00:17;;;;;;;6.15;4.28;;;4.30;77.20;;;;;;4980225;28;20116;-66
2022/01/28 08:02:43;;;;;;;6.60;4.53;;;4.40;77.30;;;;;;4977249;28;20035;-67
2022/01/28 08:05:10;;;;;;;8.60;4.95;;;4.30;77.20;;;;;;4979876;28;20030;-65
2022/01/28 08:07:36;;;;;;;6.90;4.97;;;4.30;77.30;;;;;;4979118;28;20030;-66
2022/01/28 08:10:01;;;;;;;11.30;5.43;;;4.30;77.40;;;;;;4979800;28;20057;-65
2022/01/28 08:12:27;;;;;;;7.63;5.07;;;4.30;77.40;;;;;;4979477;28;20055;-67
2022/01/28 08:14:52;;;;;;;9.23;4.93;;;4.30;77.60;;;;;;4978113;28;20023;-65
2022/01/28 08:17:18;;;;;;;8.68;4.88;;;4.30;77.60;;;;;;4978228;28;20034;-63
2022/01/28 08:19:44;;;;;;;11.43;5.47;;;4.30;77.70;;;;;;4976232;28;20477;-66
2022/01/28 08:22:09;;;;;;;8.93;4.40;;;4.30;77.60;;;;;;4978064;28;20039;-66
2022/01/28 08:24:35;;;;;;;7.78;3.88;;;4.30;77.30;;;;;;4976328;28;20045;-66
2022/01/28 08:27:01;;;;;;;6.38;4.10;;;4.40;76.90;;;;;;4978950;28;20046;-66
2022/01/28 08:29:26;;;;;;;5.50;3.70;;;4.40;76.70;;;;;;4978083;28;20026;-66
2022/01/28 08:31:52;;;;;;;6.47;4.03;;;4.40;76.70;;;;;;4978699;28;20109;-65
2022/01/28 08:34:18;;;;;;;6.07;3.60;;;4.40;76.60;;;;;;4977919;28;20584;-66
2022/01/28 08:36:43;;;;;;;7.90;4.10;;;4.40;76.60;;;;;;4978153;28;20049;-65
2022/01/28 08:39:10;;;;;;;8.38;4.22;;;4.50;76.60;;;;;;4980550;28;20141;-65
2022/01/28 08:41:36;;;;;;;5.97;3.70;;;4.50;76.70;;;;;;4980292;28;20038;-67
2022/01/28 08:44:03;;;;;;;7.90;4.05;;;4.50;76.80;;;;;;4980446;28;20035;-66
2022/01/28 08:46:28;;;;;;;8.00;3.83;;;4.60;76.70;;;;;;4978638;28;20069;-66
2022/01/28 08:48:54;;;;;;;7.78;3.38;;;4.70;76.60;;;;;;4978673;28;20046;-66
2022/01/28 08:51:20;;;;;;;5.97;3.50;;;4.70;76.30;;;;;;4981170;28;20118;-65
2022/01/28 08:53:45;;;;;;;7.30;3.45;;;4.80;76.00;;;;;;4980953;28;20131;-65
2022/01/28 08:56:11;;;;;;;6.07;3.17;;;4.80;75.60;;;;;;4977589;28;20042;-66
2022/01/28 08:58:36;;;;;;;5.35;3.33;;;4.90;74.90;;;;;;4979725;28;20544;-66
2022/01/28 09:01:03;;;;;;;7.03;3.72;;;5.00;75.30;;;;;;4978693;28;20085;-66
2022/01/28 09:03:28;;;;;;;4.07;3.28;;;5.00;75.20;;;;;;4975287;28;20030;-66
2022/01/28 09:05:54;;;;;;;6.55;3.85;;;5.10;75.50;;;;;;4978412;28;20082;-65
2022/01/28 09:08:19;;;;;;;4.97;3.72;;;5.10;76.20;;;;;;4979450;28;20042;-65
2022/01/28 09:10:56;;;;;;;4.95;3.42;;;5.20;75.40;;;;;;4976476;28;20038;-65
2022/01/28 09:13:24;;;;;;;8.32;3.85;;;5.20;75.50;;;;;;4981317;28;20501;-65
2022/01/28 09:15:51;;;;;;;5.00;3.45;;;5.30;75.10;;;;;;4980046;28;20057;-66
2022/01/28 09:18:18;;;;;;;5.47;3.60;;;5.40;74.60;;;;;;4980928;28;20031;-65
2022/01/28 09:20:44;;;;;;;4.82;3.38;;;5.40;74.60;;;;;;4977470;28;20042;-66
2022/01/28 09:23:09;;;;;;;5.40;3.33;;;5.50;75.00;;;;;;4979843;28;20096;-65
2022/01/28 09:25:35;;;;;;;5.40;3.75;;;5.50;74.40;;;;;;4980258;28;20042;-66
2022/01/28 09:28:01;;;;;;;6.15;3.97;;;5.50;74.50;;;;;;4977920;28;20043;-65
2022/01/28 09:30:27;;;;;;;5.22;3.75;;;5.60;74.70;;;;;;4976296;28;20030;-65
2022/01/28 09:32:53;;;;;;;4.63;3.55;;;5.60;74.60;;;;;;4980043;28;20057;-65
2022/01/28 09:35:19;;;;;;;7.65;3.90;;;5.70;74.60;;;;;;4978816;28;20077;-65
2022/01/28 09:37:45;;;;;;;6.30;3.90;;;5.70;74.30;;;;;;4979296;28;20031;-66
2022/01/28 09:40:12;;;;;;;6.00;3.88;;;5.80;74.20;;;;;;4979882;28;20042;-65
2022/01/28 09:42:41;;;;;;;5.07;4.28;;;5.80;74.00;;;;;;4978551;28;20040;-66
2022/01/28 09:45:09;;;;;;;5.10;3.10;;;5.80;74.00;;;;;;4982818;28;20034;-65
2022/01/28 09:47:38;;;;;;;3.95;2.50;;;5.80;73.80;;;;;;4978561;28;20408;-66
2022/01/28 09:50:06;;;;;;;5.43;2.70;;;5.90;73.50;;;;;;4979949;28;20073;-66
2022/01/28 09:52:33;;;;;;;5.47;2.80;;;5.90;72.50;;;;;;4976789;28;20525;-66
2022/01/28 09:54:58;;;;;;;6.47;2.92;;;5.90;72.30;;;;;;4977880;28;20616;-66
2022/01/28 09:57:24;;;;;;;6.30;3.17;;;5.90;73.10;;;;;;4978216;28;20047;-66
2022/01/28 09:59:50;;;;;;;5.43;2.97;;;5.90;72.40;;;;;;4980268;28;20449;-66
2022/01/28 10:02:16;;;;;;;4.50;2.90;;;5.90;72.40;;;;;;4978213;28;20034;-66
2022/01/28 10:04:42;;;;;;;5.60;3.33;;;5.90;72.40;;;;;;4976414;28;20046;-66
2022/01/28 10:07:12;;;;;;;4.57;3.22;;;5.90;72.50;;;;;;4976177;28;20034;-66
2022/01/28 10:09:58;;;;;;;5.85;3.55;;;6.00;72.60;;;;;;4978844;28;20394;-67
2022/01/28 10:12:39;;;;;;;4.93;3.50;;;6.00;71.70;;;;;;4977282;28;20421;-66
2022/01/28 10:15:17;;;;;;;8.65;3.85;;;6.00;72.60;;;;;;4978531;28;20089;-65
2022/01/28 10:18:09;;;;;;;4.80;3.50;;;6.10;72.40;;;;;;4977445;28;20045;-66
2022/01/28 10:20:42;;;;;;;5.18;3.63;;;6.10;71.70;;;;;;4979180;28;21015;-66
2022/01/28 10:23:12;;;;;;;4.53;3.10;;;6.10;72.20;;;;;;4977921;28;20038;-65
2022/01/28 10:25:38;;;;;;;5.53;3.67;;;6.20;72.20;;;;;;4990873;28;20034;-65
2022/01/28 10:28:07;;;;;;;5.78;3.70;;;6.20;72.10;;;;;;4979443;28;20039;-66
2022/01/28 10:30:42;;;;;;;5.60;3.30;;;6.20;71.60;;;;;;4973994;28;20243;-66
2022/01/28 10:33:11;;;;;;;5.05;3.28;;;6.20;71.20;;;;;;4978027;28;20038;-66
2022/01/28 10:35:38;;;;;;;8.40;4.20;;;6.20;70.50;;;;;;4979540;28;20029;-66
2022/01/28 10:38:07;;;;;;;6.25;3.00;;;6.10;70.80;;;;;;4978400;28;20034;-66
2022/01/28 10:40:34;;;;;;;4.53;3.05;;;6.10;70.80;;;;;;4976269;28;20386;-66
2022/01/28 10:43:00;;;;;;;4.35;2.70;;;6.10;70.40;;;;;;4975137;28;20049;-67
2022/01/28 10:45:30;;;;;;;4.95;2.70;;;6.10;69.10;;;;;;4977507;28;20042;-66
2022/01/28 10:47:57;;;;;;;4.47;3.00;;;6.10;68.90;;;;;;4975214;28;20062;-66
2022/01/28 10:50:33;;;;;;;6.47;2.90;;;6.20;68.90;;;;;;4977333;28;20030;-66
2022/01/28 10:53:09;;;;;;;6.47;2.42;;;6.20;68.30;;;;;;4976030;28;20089;-66
2022/01/28 10:55:48;;;;;;;3.83;2.40;;;6.20;69.50;;;;;;4977307;28;20042;-67
2022/01/28 10:58:20;;;;;;;6.00;2.70;;;6.20;68.70;;;;;;4976696;28;20035;-67
2022/01/28 11:00:53;;;;;;;5.30;2.97;;;6.20;68.80;;;;;;4976210;28;20489;-68
2022/01/28 11:03:26;;;;;;;6.25;2.60;;;6.30;69.20;;;;;;4977672;28;20065;-67
2022/01/28 11:05:56;;;;;;;7.47;2.35;;;6.30;68.40;;;;;;4979034;28;20030;-66
2022/01/28 11:08:24;;;;;;;6.60;2.60;;;6.30;68.40;;;;;;4977296;28;20042;-67
2022/01/28 11:10:50;;;;;;;7.05;2.13;;;6.40;68.50;;;;;;4976057;28;20030;-65
2022/01/28 11:13:17;;;;;;;6.65;2.30;;;6.40;68.10;;;;;;4977678;28;20030;-65
2022/01/28 11:15:43;;;;;;;4.97;2.42;;;6.40;67.70;;;;;;4976034;28;20413;-66
2022/01/28 11:18:10;;;;;;;6.50;2.45;;;6.50;67.40;;;;;;4976657;28;20466;-66
2022/01/28 11:20:44;;;;;;;10.07;3.50;;;6.50;67.90;;;;;;4973902;28;20413;-66
2022/01/28 11:23:33;;;;;;;5.10;2.33;;;6.50;66.60;;;;;;4979302;28;20041;-67
2022/01/28 11:26:12;;;;;;;3.25;1.70;;;6.50;65.80;;;;;;4979245;28;20042;-66
2022/01/28 11:28:42;;;;;;;4.35;1.90;;;6.50;64.60;;;;;;4977454;28;20093;-67
2022/01/28 11:31:08;;;;;;;5.35;1.67;;;6.50;64.80;;;;;;4976900;28;20031;-66
2022/01/28 11:33:45;;;;;;;3.70;1.70;;;6.50;64.30;;;;;;4981386;28;20035;-66
2022/01/28 11:36:10;;;;;;;4.00;1.60;;;6.40;63.70;;;;;;4979087;28;20058;-66
2022/01/28 11:38:40;;;;;;;5.63;1.60;;;6.40;64.50;;;;;;4977111;28;20058;-66
2022/01/28 11:41:20;;;;;;;6.50;1.50;;;6.40;64.80;;;;;;4979010;28;20089;-66
2022/01/28 11:43:56;;;;;;;2.40;1.40;;;6.40;64.90;;;;;;4977280;28;20034;-67
2022/01/28 11:46:23;;;;;;;3.53;1.92;;;6.40;64.90;;;;;;4975493;28;20034;-67
2022/01/28 11:48:54;;;;;;;4.03;1.85;;;6.40;65.60;;;;;;4976100;28;20101;-66
2022/01/28 11:51:35;;;;;;;9.13;1.80;;;6.40;65.10;;;;;;4975939;28;20097;-66
2022/01/28 11:54:04;;;;;;;4.30;1.50;;;6.40;63.60;;;;;;4976997;28;20047;-66
2022/01/28 11:56:30;;;;;;;4.07;0.90;;;6.40;64.20;;;;;;4975449;28;20031;-66
2022/01/28 11:59:09;;;;;;;4.13;1.10;;;6.50;63.30;;;;;;4974926;28;20035;-63
2022/01/28 12:01:37;;;;;;;6.15;1.17;;;6.50;62.70;;;;;;4974042;28;20104;-66
2022/01/28 12:04:26;;;;;;;3.20;1.05;;;6.60;63.10;;;;;;4976274;28;20042;-67
2022/01/28 12:06:55;;;;;;;4.80;1.50;;;6.60;59.90;;;;;;4990545;28;20034;-66
2022/01/28 12:09:23;;;;;;;5.38;1.50;;;6.60;60.70;;;;;;4975464;28;20038;-66
2022/01/28 12:11:50;;;;;;;6.20;1.70;;;6.60;61.60;;;;;;4975943;28;20401;-66
2022/01/28 12:14:15;;;;;;;7.43;1.75;;;6.70;62.00;;;;;;4977100;28;20031;-68
2022/01/28 12:16:45;;;;;;;3.13;1.10;;;6.60;62.10;;;;;;4975091;28;20037;-66
2022/01/28 12:19:19;;;;;;;7.45;1.52;;;6.60;62.10;;;;;;4976845;28;20035;-65
2022/01/28 12:22:10;;;;;;;6.20;1.80;;;6.60;61.80;;;;;;4976747;28;20114;-66
2022/01/28 12:24:37;;;;;;;4.32;1.48;;;6.60;60.70;;;;;;4976171;28;20027;-66
2022/01/28 12:27:10;;;;;;;3.40;1.20;;;6.60;61.90;;;;;;4976420;28;20170;-66
2022/01/28 12:29:47;;;;;;;3.65;1.15;;;6.50;61.70;;;;;;4976356;28;20528;-66
2022/01/28 12:32:19;;;;;;;3.30;1.20;;;6.50;61.80;;;;;;4976076;28;20034;-66
2022/01/28 12:34:46;;;;;;;4.07;1.58;;;6.60;62.50;;;;;;4976519;28;20046;-66
2022/01/28 12:37:12;;;;;;;4.93;1.75;;;6.60;63.10;;;;;;4977511;28;20046;-66
2022/01/28 12:39:44;;;;;;;5.10;1.77;;;6.60;63.50;;;;;;4977739;28;20030;-67
2022/01/28 12:42:23;;;;;;;3.83;1.50;;;6.70;63.20;;;;;;4976052;28;20035;-68
2022/01/28 12:44:53;;;;;;;5.35;1.10;;;6.70;62.80;;;;;;4977305;28;20039;-67
2022/01/28 12:47:19;;;;;;;4.93;1.40;;;6.70;61.20;;;;;;4979181;28;20576;-67
2022/01/28 12:49:46;;;;;;;2.83;1.33;;;6.70;61.20;;;;;;4979293;28;20162;-67
2022/01/28 12:52:12;;;;;;;6.32;1.70;;;6.80;61.00;;;;;;4979705;28;20030;-67
2022/01/28 12:54:42;;;;;;;4.78;1.35;;;6.70;60.90;;;;;;4979621;28;20030;-67
2022/01/28 12:57:10;;;;;;;5.88;1.60;;;6.70;61.30;;;;;;4992902;28;20078;-66
2022/01/28 12:59:38;;;;;;;4.32;1.75;;;6.70;61.30;;;;;;4979865;28;20113;-67
2022/01/28 13:02:04;;;;;;;6.85;2.00;;;6.70;61.90;;;;;;4978771;28;20126;-66
2022/01/28 13:04:49;;;;;;;4.93;2.05;;;6.70;61.90;;;;;;4979442;28;20037;-67
2022/01/28 13:09:57;;;;;;;5.07;2.83;;;6.70;61.30;;;;;;4978297;28;19922;-67
2022/01/28 13:12:32;;;;;;;2.95;1.40;;;6.80;62.70;;;;;;4978382;28;20050;-66
2022/01/28 13:15:10;;;;;;;5.53;1.50;;;6.80;63.10;;;;;;4978614;28;20037;-67
2022/01/28 13:17:37;;;;;;;10.65;1.60;;;6.80;61.30;;;;;;4980166;28;20038;-66
2022/01/28 13:20:09;;;;;;;3.85;1.50;;;6.80;62.20;;;;;;4978066;28;20073;-67
2022/01/28 13:22:35;;;;;;;4.00;1.67;;;6.90;62.00;;;;;;4978202;28;20501;-66
2022/01/28 13:25:01;;;;;;;9.55;1.42;;;6.90;62.30;;;;;;4979125;28;20047;-66
2022/01/28 13:27:42;;;;;;;4.53;1.60;;;6.90;62.00;;;;;;4978863;28;20092;-66
2022/01/28 13:30:14;;;;;;;4.45;1.58;;;6.90;61.30;;;;;;4977514;28;20030;-67
2022/01/28 13:32:45;;;;;;;3.95;1.35;;;7.00;61.30;;;;;;4977330;28;20038;-67
2022/01/28 13:35:17;;;;;;;8.23;1.70;;;7.00;60.60;;;;;;4977959;28;20091;-67
2022/01/28 13:37:45;;;;;;;7.10;1.67;;;7.00;60.00;;;;;;4978090;28;20046;-66
2022/01/28 13:40:31;;;;;;;4.32;1.40;;;7.00;60.40;;;;;;4978779;28;20081;-65
2022/01/28 13:43:00;;;;;;;7.38;1.77;;;7.00;59.90;;;;;;4978039;28;20054;-67
2022/01/28 13:45:35;;;;;;;5.95;1.80;;;7.00;60.70;;;;;;4979756;28;20722;-66
2022/01/28 13:48:03;;;;;;;4.38;1.70;;;7.00;60.00;;;;;;4979330;28;20066;-66
2022/01/28 13:50:41;;;;;;;5.07;2.05;;;7.00;60.00;;;;;;4979927;28;20153;-67
2022/01/28 13:53:32;;;;;;;14.90;2.65;;;7.00;60.00;;;;;;4981020;28;20026;-66
2022/01/28 13:56:01;;;;;;;3.50;1.90;;;7.00;59.40;;;;;;4977345;28;20085;-67
2022/01/28 13:58:29;;;;;;;4.28;1.88;;;7.00;59.30;;;;;;4978252;28;20037;-66
2022/01/28 14:00:56;;;;;;;7.25;2.30;;;7.00;59.80;;;;;;4978464;28;20039;-65
2022/01/28 14:03:26;;;;;;;8.38;1.92;;;7.00;59.60;;;;;;4978683;28;20030;-66
2022/01/28 14:06:02;;;;;;;7.25;2.33;;;6.90;59.40;;;;;;4976069;28;20042;-67
2022/01/28 14:08:40;;;;;;;6.65;2.58;;;6.90;59.00;;;;;;4976617;28;20031;-67
2022/01/28 14:11:20;;;;;;;8.23;1.98;;;6.90;58.30;;;;;;4976190;28;20073;-66
2022/01/28 14:14:33;;;;;;;3.35;1.50;;;6.90;58.70;;;;;;4991355;28;20050;-67
2022/01/28 14:17:02;;;;;;;6.65;1.90;;;6.90;58.00;;;;;;4975200;28;20551;-67
2022/01/28 14:19:33;;;;;;;3.00;2.00;;;6.80;58.80;;;;;;4978014;28;20129;-68
2022/01/28 14:22:00;;;;;;;3.95;1.98;;;6.80;58.70;;;;;;4976390;28;20026;-68
2022/01/28 14:24:31;;;;;;;4.40;1.80;;;6.80;59.70;;;;;;4977887;28;20097;-67
2022/01/28 14:32:04;;;;;;;6.05;2.40;;;6.70;59.40;;;;;;4977220;28;20061;-68
2022/01/28 14:34:29;;;;;;;5.45;2.03;;;6.70;59.90;;;;;;4979031;28;20054;-67
2022/01/28 14:36:55;;;;;;;3.05;1.80;;;6.70;60.30;;;;;;4976215;28;20061;-66
2022/01/28 14:39:22;;;;;;;5.43;1.98;;;6.70;60.70;;;;;;4978575;28;20461;-66